Terminal Aerodrome Forecast
Issued by NWS Jackson, MS

Home | Current Version | Previous Version | Text Only | Print | Product List | Glossary On
Versions: 1 2 3 4 5 6 7 8 9 10 11 12 13 14 15
000
FTUS44 KJAN 282331
TAFGLH
TAF
KGLH 282331Z 2900/2924 16012G26KT P6SM FEW050 SCT250
     FM290600 16016G27KT P6SM BKN015
     FM291400 17017G29KT P6SM BKN025
     FM291600 17021G38KT P6SM SCT050 SCT250=

USA.gov is the U.S. government's official web portal to all federal, state and local government web resources and services.